Time;durP1;ratioP1;P1;durP2;ratioP2;P2;SDS_P1;SDS_P2;PMS_P1;PMS_P2;Temp;Humidity;BMP_temperature;BMP_pressure;BME280_temperature;BME280_humidity;BME280_pressure;Samples;Min_cycle;Max_cycle;Signal;HPM_P1;HPM_P2
2022/09/10 00:01:28;;;;;;;10.30;9.30;;;;;;;13.92;78.71;100407.67;104735;1289;25914;-78
2022/09/10 00:03:56;;;;;;;10.60;9.60;;;;;;;13.92;78.95;100407.12;104864;1284;25563;-79
2022/09/10 00:06:26;;;;;;;9.70;8.60;;;;;;;13.93;78.87;100409.41;105330;1281;25460;-78
2022/09/10 00:08:57;;;;;;;8.30;7.50;;;;;;;13.95;78.86;100404.23;105615;1281;22539;-78
2022/09/10 00:11:30;;;;;;;8.90;8.10;;;;;;;13.92;78.51;100399.51;105673;1281;25315;-76
2022/09/10 00:13:59;;;;;;;9.10;8.30;;;;;;;13.86;78.37;100401.42;105535;1281;24239;-78
2022/09/10 00:16:27;;;;;;;10.30;9.00;;;;;;;13.84;78.72;100404.64;105934;1281;25456;-76
2022/09/10 00:18:56;;;;;;;10.20;9.20;;;;;;;13.87;78.67;100395.73;105736;1280;23392;-76
2022/09/10 00:21:23;;;;;;;9.00;8.20;;;;;;;13.83;78.77;100389.45;105780;1275;22535;-77
2022/09/10 00:23:49;;;;;;;8.90;8.00;;;;;;;13.83;78.79;100380.59;105861;1281;22569;-79
2022/09/10 00:26:23;;;;;;;9.10;8.10;;;;;;;13.84;78.97;100380.58;106002;1278;24235;-74
2022/09/10 00:28:51;;;;;;;9.40;7.60;;;;;;;13.86;79.01;100372.21;105745;1278;22544;-74
2022/09/10 00:31:20;;;;;;;7.80;7.00;;;;;;;13.87;79.05;100371.49;105641;1278;25486;-74
2022/09/10 00:33:49;;;;;;;8.50;7.40;;;;;;;13.90;79.15;100369.84;105811;1278;24560;-73
2022/09/10 00:36:29;;;;;;;8.20;7.30;;;;;;;13.95;79.31;100369.00;105912;1278;22586;-74
2022/09/10 00:38:59;;;;;;;9.10;7.40;;;;;;;14.00;79.19;100364.63;105861;1278;24050;-74
2022/09/10 00:41:26;;;;;;;9.00;7.70;;;;;;;14.03;79.22;100365.45;105675;1278;22702;-73
2022/09/10 00:44:01;;;;;;;8.20;7.40;;;;;;;14.01;79.09;100360.38;105756;1276;22526;-73
2022/09/10 00:46:42;;;;;;;7.40;6.70;;;;;;;13.95;79.02;100358.73;105851;1276;22549;-74
2022/09/10 00:49:20;;;;;;;7.70;7.00;;;;;;;13.95;79.13;100357.85;105857;1276;24387;-74
2022/09/10 00:51:51;;;;;;;8.70;7.60;;;;;;;13.93;79.04;100358.44;105965;1276;25240;-75
2022/09/10 00:54:23;;;;;;;7.80;7.10;;;;;;;13.91;79.03;100360.96;105907;1274;22577;-76
2022/09/10 00:56:52;;;;;;;9.10;7.40;;;;;;;13.90;79.01;100359.92;105758;1274;25350;-75
2022/09/10 00:59:22;;;;;;;7.60;6.90;;;;;;;13.93;79.00;100360.38;105928;1274;22521;-74
2022/09/10 01:01:49;;;;;;;7.30;6.60;;;;;;;13.96;79.02;100360.48;105794;1276;24076;-74
2022/09/10 01:04:16;;;;;;;8.60;6.50;;;;;;;13.95;78.82;100359.44;105984;1274;22734;-82
2022/09/10 01:06:45;;;;;;;9.30;8.00;;;;;;;13.91;78.69;100355.27;105927;1273;22827;-75
2022/09/10 01:09:14;;;;;;;7.80;7.00;;;;;;;13.91;78.73;100360.75;105861;1275;22529;-75
2022/09/10 01:11:56;;;;;;;7.60;6.90;;;;;;;13.89;78.61;100360.84;105544;1280;22640;-75
2022/09/10 01:14:50;;;;;;;8.80;7.40;;;;;;;13.82;78.57;100359.20;105670;1281;22520;-75
2022/09/10 01:17:24;;;;;;;7.70;7.00;;;;;;;13.80;78.63;100354.46;104955;1284;23075;-81
2022/09/10 01:20:29;;;;;;;7.20;6.60;;;;;;;13.73;78.34;100354.09;105244;1284;23982;-75
2022/09/10 01:23:10;;;;;;;6.80;6.20;;;;;;;13.63;78.46;100355.02;105090;1284;25430;-74
2022/09/10 01:26:02;;;;;;;6.70;6.10;;;;;;;13.58;78.45;100355.14;105211;1284;22552;-72
2022/09/10 01:28:48;;;;;;;6.50;5.90;;;;;;;13.56;78.61;100354.48;105214;1284;22632;-74
2022/09/10 01:31:30;;;;;;;6.50;5.80;;;;;;;13.57;78.83;100347.55;105504;1279;24361;-74
2022/09/10 01:34:15;;;;;;;6.30;5.70;;;;;;;13.58;78.64;100345.56;105837;1278;25240;-75
2022/09/10 01:36:47;;;;;;;6.40;5.80;;;;;;;13.53;78.51;100338.79;106140;1273;22862;-82
2022/09/10 01:39:19;;;;;;;6.90;6.20;;;;;;;13.50;78.67;100340.44;107717;1272;25273;-75
2022/09/10 01:41:51;;;;;;;6.70;6.00;;;;;;;13.48;78.65;100336.21;107705;1275;24267;-76
2022/09/10 01:44:46;;;;;;;8.00;6.10;;;;;;;13.49;78.83;100333.73;106644;1273;23950;-80
2022/09/10 01:47:38;;;;;;;7.00;6.30;;;;;;;13.52;78.79;100338.81;108957;1272;22552;-74
2022/09/10 01:50:08;;;;;;;7.10;6.00;;;;;;;13.57;78.75;100336.93;108406;1277;24316;-75
2022/09/10 01:52:46;;;;;;;6.00;5.50;;;;;;;13.62;78.70;100329.20;106804;1278;22558;-76
2022/09/10 01:55:43;;;;;;;5.20;4.70;;;;;;;13.65;78.43;100324.71;106108;1278;22510;-74
2022/09/10 01:58:17;;;;;;;5.00;4.60;;;;;;;13.65;78.25;100321.91;106302;1277;25231;-77
2022/09/10 02:01:06;;;;;;;5.50;5.00;;;;;;;13.70;78.25;100317.55;106195;1278;25232;-76
2022/09/10 02:03:36;;;;;;;5.70;5.10;;;;;;;13.70;78.03;100314.50;105656;1278;22726;-79
2022/09/10 02:06:08;;;;;;;5.40;4.80;;;;;;;13.70;78.08;100312.40;105693;1278;24328;-75
2022/09/10 02:08:41;;;;;;;6.80;5.40;;;;;;;13.72;77.94;100313.23;105968;1272;22542;-77
2022/09/10 02:11:11;;;;;;;5.70;5.20;;;;;;;13.70;77.83;100316.48;105711;1280;26493;-77
2022/09/10 02:13:41;;;;;;;5.10;4.60;;;;;;;13.71;77.97;100310.43;105301;1281;25465;-79
2022/09/10 02:16:29;;;;;;;5.60;5.10;;;;;;;13.73;77.92;100306.49;105195;1281;24222;-74
2022/09/10 02:18:59;;;;;;;5.70;5.10;;;;;;;13.74;77.98;100307.90;105340;1281;22538;-74
2022/09/10 02:21:27;;;;;;;5.30;4.90;;;;;;;13.77;78.00;100306.23;105497;1281;25267;-73
2022/09/10 02:23:58;;;;;;;6.10;5.60;;;;;;;13.77;77.81;100304.99;105007;1284;22558;-70
2022/09/10 02:26:26;;;;;;;6.40;5.70;;;;;;;13.76;77.83;100299.16;105270;1284;22559;-73
2022/09/10 02:28:53;;;;;;;6.50;5.70;;;;;;;13.80;77.97;100296.08;105345;1276;23881;-77
2022/09/10 02:31:21;;;;;;;7.00;6.30;;;;;;;13.82;77.95;100297.60;105212;1279;22540;-77
2022/09/10 02:33:48;;;;;;;6.60;5.70;;;;;;;13.84;78.00;100296.84;105541;1279;22662;-76
2022/09/10 02:36:15;;;;;;;6.70;5.70;;;;;;;13.86;77.97;100294.16;105166;1284;22558;-77
2022/09/10 02:38:43;;;;;;;6.40;5.80;;;;;;;13.88;77.87;100294.11;105134;1284;24451;-75
2022/09/10 02:41:10;;;;;;;6.80;6.10;;;;;;;13.87;77.75;100293.60;105211;1284;22608;-76
2022/09/10 02:43:37;;;;;;;7.40;6.40;;;;;;;13.86;77.65;100291.49;105404;1284;25583;-76
2022/09/10 02:46:06;;;;;;;8.00;6.40;;;;;;;13.86;77.69;100287.77;105102;1284;22554;-77
2022/09/10 02:48:34;;;;;;;6.70;6.00;;;;;;;13.85;77.66;100281.79;105332;1284;24285;-76
2022/09/10 02:51:02;;;;;;;7.40;5.60;;;;;;;13.86;77.80;100286.19;105211;1284;25264;-76
2022/09/10 02:53:30;;;;;;;8.60;6.30;;;;;;;13.86;77.68;100284.59;105074;1284;24405;-76
2022/09/10 02:56:01;;;;;;;9.50;6.60;;;;;;;13.88;77.84;100283.83;105771;1276;25250;-76
2022/09/10 02:58:32;;;;;;;7.80;6.60;;;;;;;13.90;77.59;100288.39;105937;1276;24348;-77
2022/09/10 03:01:27;;;;;;;8.80;8.00;;;;;;;13.88;77.44;100282.95;105652;1276;25372;-78
2022/09/10 03:04:00;;;;;;;8.40;7.50;;;;;;;13.85;77.19;100280.89;105755;1276;26515;-75
2022/09/10 03:06:28;;;;;;;9.60;7.60;;;;;;;13.82;76.98;100277.95;105747;1281;22579;-72
2022/09/10 03:08:57;;;;;;;8.30;6.90;;;;;;;13.82;77.15;100280.61;105526;1279;25449;-73
2022/09/10 03:11:26;;;;;;;7.40;6.70;;;;;;;13.82;77.15;100284.52;105451;1281;25269;-80
2022/09/10 03:13:54;;;;;;;8.80;7.90;;;;;;;13.83;77.18;100279.52;105346;1281;25409;-75
2022/09/10 03:16:22;;;;;;;9.80;6.80;;;;;;;13.83;77.12;100279.17;104834;1287;25239;-77
2022/09/10 03:18:51;;;;;;;8.30;6.50;;;;;;;13.80;77.13;100273.05;104913;1287;22540;-77
2022/09/10 03:21:21;;;;;;;10.20;6.90;;;;;;;13.79;77.35;100272.55;104858;1287;23198;-75
2022/09/10 03:23:51;;;;;;;8.50;6.70;;;;;;;13.78;77.22;100267.61;104845;1287;22583;-77
2022/09/10 03:26:26;;;;;;;7.60;6.90;;;;;;;13.78;77.37;100276.45;105125;1284;25386;-74
2022/09/10 03:28:54;;;;;;;9.00;8.20;;;;;;;13.78;77.42;100275.05;105147;1281;22561;-77
2022/09/10 03:31:23;;;;;;;9.10;8.10;;;;;;;13.78;77.38;100275.06;105723;1278;25302;-76
2022/09/10 03:33:50;;;;;;;8.30;7.40;;;;;;;13.73;77.18;100274.99;105338;1278;22563;-71
2022/09/10 03:36:19;;;;;;;6.80;6.20;;;;;;;13.68;77.19;100275.13;105674;1277;26511;-74
2022/09/10 03:38:47;;;;;;;7.40;6.70;;;;;;;13.66;77.24;100281.17;105650;1278;24105;-77
2022/09/10 03:41:14;;;;;;;9.60;6.90;;;;;;;13.66;77.33;100284.52;105685;1278;25658;-75
2022/09/10 03:43:42;;;;;;;9.30;7.10;;;;;;;13.70;77.42;100290.29;105942;1278;26578;-75
2022/09/10 03:46:10;;;;;;;8.00;7.30;;;;;;;13.67;77.17;100291.41;105133;1281;25340;-74
2022/09/10 03:48:42;;;;;;;8.10;7.40;;;;;;;13.64;77.18;100283.16;105579;1281;25267;-74
2022/09/10 03:51:09;;;;;;;7.60;6.90;;;;;;;13.58;77.15;100278.34;105659;1278;22868;-74
2022/09/10 03:53:37;;;;;;;7.60;6.70;;;;;;;13.58;77.34;100278.35;105894;1279;25259;-76
2022/09/10 03:56:06;;;;;;;8.50;7.10;;;;;;;13.61;77.42;100281.10;106095;1276;24193;-71
2022/09/10 03:58:34;;;;;;;7.20;6.40;;;;;;;13.64;77.38;100288.13;106215;1276;25362;-75
2022/09/10 04:01:02;;;;;;;7.30;6.60;;;;;;;13.58;77.14;100291.77;106415;1278;25252;-76
2022/09/10 04:03:30;;;;;;;6.20;5.60;;;;;;;13.57;77.31;100294.30;106149;1281;25270;-83
2022/09/10 04:05:57;;;;;;;6.40;5.80;;;;;;;13.58;77.41;100293.21;105927;1279;24537;-78
2022/09/10 04:08:24;;;;;;;6.90;6.20;;;;;;;13.60;77.30;100298.30;106051;1278;25355;-78
2022/09/10 04:10:52;;;;;;;7.20;6.00;;;;;;;13.59;77.36;100299.20;106122;1278;25232;-77
2022/09/10 04:13:18;;;;;;;6.70;5.50;;;;;;;13.58;77.27;100296.56;106176;1278;24334;-77
2022/09/10 04:15:46;;;;;;;6.70;6.10;;;;;;;13.55;77.24;100292.57;106280;1278;24496;-76
2022/09/10 04:18:13;;;;;;;7.20;6.50;;;;;;;13.56;77.34;100289.71;106304;1278;24370;-75
2022/09/10 04:20:42;;;;;;;8.00;7.30;;;;;;;13.58;77.37;100292.33;106447;1279;24356;-76
2022/09/10 04:23:09;;;;;;;8.60;7.80;;;;;;;13.53;76.84;100297.39;106884;1276;22553;-75
2022/09/10 04:25:38;;;;;;;9.00;8.20;;;;;;;13.47;77.12;100293.45;106450;1278;22700;-76
2022/09/10 04:28:08;;;;;;;7.50;6.90;;;;;;;13.42;77.13;100287.88;106538;1278;25372;-76
2022/09/10 04:30:36;;;;;;;8.60;7.70;;;;;;;13.33;77.13;100279.23;106261;1278;22567;-76
2022/09/10 04:33:03;;;;;;;8.40;7.60;;;;;;;13.30;77.58;100268.70;106048;1278;23993;-87
2022/09/10 04:35:31;;;;;;;9.60;8.00;;;;;;;13.35;77.77;100261.14;105726;1282;25398;-78
2022/09/10 04:38:00;;;;;;;7.50;6.70;;;;;;;13.40;77.66;100255.55;105784;1279;24249;-78
2022/09/10 04:40:28;;;;;;;7.50;6.70;;;;;;;13.37;77.46;100249.80;105870;1278;25254;-77
2022/09/10 04:42:55;;;;;;;9.00;7.60;;;;;;;13.39;77.73;100251.34;105653;1276;23944;-76
2022/09/10 04:45:22;;;;;;;8.90;7.70;;;;;;;13.39;77.70;100248.34;106355;1273;23964;-76
2022/09/10 04:47:51;;;;;;;7.40;6.80;;;;;;;13.41;77.67;100249.35;106314;1273;24408;-77
2022/09/10 04:50:20;;;;;;;7.40;6.80;;;;;;;13.41;77.78;100247.05;108194;1272;22891;-77
2022/09/10 04:53:06;;;;;;;7.80;6.60;;;;;;;13.42;77.83;100235.16;108957;1273;23967;-76
2022/09/10 04:55:38;;;;;;;8.30;6.80;;;;;;;13.46;77.66;100235.08;107608;1272;22919;-87
2022/09/10 04:58:05;;;;;;;7.90;7.10;;;;;;;13.48;77.53;100241.94;109183;1272;25386;-78
